createdAt,value
2018-02-12T00:00:13.497Z,9.80
2018-02-12T00:02:52.088Z,9.70
2018-02-12T00:05:30.669Z,9.70
2018-02-12T00:08:13.326Z,9.30
2018-02-12T00:10:51.801Z,9.30
2018-02-12T00:13:30.247Z,9.20
2018-02-12T00:16:08.476Z,9.20
2018-02-12T00:18:46.045Z,9.10
2018-02-12T00:21:24.442Z,9.00
2018-02-12T00:24:02.957Z,9.00
2018-02-12T00:26:43.392Z,8.80
2018-02-12T00:29:25.904Z,8.70
2018-02-12T00:32:04.523Z,8.60
2018-02-12T00:34:43.024Z,8.60
2018-02-12T00:37:21.740Z,8.60
2018-02-12T00:40:01.641Z,8.30
2018-02-12T00:42:42.577Z,8.40
2018-02-12T00:45:20.157Z,8.30
2018-02-12T00:48:01.727Z,8.20
2018-02-12T00:50:41.166Z,8.00
2018-02-12T00:53:20.556Z,8.30
2018-02-12T00:56:00.185Z,8.00
2018-02-12T00:58:38.435Z,7.90
2018-02-12T01:01:19.043Z,8.00
2018-02-12T01:03:59.764Z,7.60
2018-02-12T01:06:42.011Z,7.60
2018-02-12T01:09:20.580Z,7.30
2018-02-12T01:11:59.062Z,7.30
2018-02-12T01:14:39.566Z,7.20
2018-02-12T01:17:22.551Z,7.50
2018-02-12T01:20:03.077Z,7.20
2018-02-12T01:22:44.438Z,7.00
2018-02-12T01:25:26.052Z,6.90
2018-02-12T01:28:06.638Z,6.90
2018-02-12T01:30:49.037Z,6.90
2018-02-12T01:33:27.526Z,6.90
2018-02-12T01:36:08.106Z,6.80
2018-02-12T01:38:50.717Z,6.60
2018-02-12T01:44:15.771Z,6.70
2018-02-12T01:46:56.319Z,6.40
2018-02-12T01:49:35.432Z,6.50
2018-02-12T01:52:16.235Z,6.30
2018-02-12T01:54:54.751Z,6.20
2018-02-12T01:57:33.952Z,6.20
2018-02-12T02:00:12.906Z,6.20
2018-02-12T02:02:55.086Z,6.20
2018-02-12T02:05:33.637Z,6.10
2018-02-12T02:08:12.235Z,6.00
2018-02-12T02:10:50.844Z,6.00
2018-02-12T02:13:28.441Z,5.90
2018-02-12T02:16:08.071Z,5.90
2018-02-12T02:18:50.478Z,5.80
2018-02-12T02:21:29.836Z,5.80
2018-02-12T02:24:12.590Z,5.80
2018-02-12T02:26:51.242Z,5.80
2018-02-12T02:29:32.891Z,5.60
2018-02-12T02:32:12.644Z,5.70
2018-02-12T02:34:51.142Z,5.50
2018-02-12T02:37:29.689Z,5.60
2018-02-12T02:40:09.320Z,5.50
2018-02-12T02:42:49.042Z,5.30
2018-02-12T02:45:28.633Z,5.40
2018-02-12T02:48:08.758Z,5.40
2018-02-12T02:50:50.717Z,5.40
2018-02-12T02:53:33.123Z,5.10
2018-02-12T02:56:12.831Z,5.10
2018-02-12T02:58:52.490Z,4.90
2018-02-12T03:01:31.551Z,5.00
2018-02-12T03:04:10.323Z,5.00
2018-02-12T03:06:49.016Z,4.80
2018-02-12T03:09:31.713Z,4.50
2018-02-12T03:12:10.564Z,4.50
2018-02-12T03:14:53.177Z,4.10
2018-02-12T03:17:33.783Z,4.10
2018-02-12T03:20:11.425Z,4.30
2018-02-12T03:22:50.061Z,4.40
2018-02-12T03:25:29.662Z,4.40
2018-02-12T03:28:08.408Z,3.90
2018-02-12T03:30:47.998Z,4.10
2018-02-12T03:33:27.613Z,3.90
2018-02-12T03:36:06.669Z,4.10
2018-02-12T03:38:47.768Z,4.20
2018-02-12T03:41:28.120Z,4.00
2018-02-12T03:44:09.780Z,4.20
2018-02-12T03:46:48.396Z,3.90
2018-02-12T03:49:30.789Z,3.90
2018-02-12T03:52:10.216Z,4.10
2018-02-12T03:54:49.871Z,4.20
2018-02-12T03:57:28.621Z,4.00
2018-02-12T04:00:08.114Z,3.80
2018-02-12T04:02:47.466Z,3.80
2018-02-12T04:05:29.943Z,3.80
2018-02-12T04:08:07.091Z,3.80
2018-02-12T04:10:46.059Z,4.20
2018-02-12T04:13:26.953Z,4.40
2018-02-12T04:16:08.410Z,4.50
2018-02-12T04:18:49.843Z,4.50
2018-02-12T04:21:28.542Z,4.50
2018-02-12T04:24:07.154Z,4.30
2018-02-12T04:26:46.267Z,4.50
2018-02-12T04:29:26.354Z,4.40
2018-02-12T04:32:05.239Z,4.20
2018-02-12T04:34:45.783Z,4.70
2018-02-12T04:37:25.525Z,4.30
2018-02-12T04:40:03.953Z,4.50
2018-02-12T04:42:43.605Z,4.20
2018-02-12T04:45:23.260Z,4.40
2018-02-12T04:48:03.835Z,4.40
2018-02-12T04:50:44.351Z,4.10
2018-02-12T04:53:23.928Z,3.90
2018-02-12T04:56:02.519Z,3.80
2018-02-12T04:58:42.061Z,4.20
2018-02-12T05:04:02.117Z,3.90
2018-02-12T05:06:44.648Z,3.90
2018-02-12T05:09:25.132Z,3.80
2018-02-12T05:12:03.744Z,3.90
2018-02-12T05:14:43.177Z,4.10
2018-02-12T05:17:22.658Z,3.90
2018-02-12T05:20:05.176Z,4.40
2018-02-12T05:22:43.839Z,4.10
2018-02-12T05:25:22.248Z,4.40
2018-02-12T05:28:00.669Z,4.10
2018-02-12T05:30:39.188Z,4.40
2018-02-12T05:33:18.590Z,3.80
2018-02-12T05:35:59.001Z,4.10
2018-02-12T05:38:40.476Z,3.80
2018-02-12T05:41:23.023Z,3.80
2018-02-12T05:44:01.562Z,3.80
2018-02-12T05:46:43.488Z,4.10
2018-02-12T05:49:23.536Z,3.90
2018-02-12T05:52:06.063Z,3.80
2018-02-12T05:54:46.634Z,4.00
2018-02-12T05:57:24.948Z,3.80
2018-02-12T06:00:05.473Z,3.60
2018-02-12T06:02:44.081Z,3.90
2018-02-12T06:05:22.653Z,3.60
2018-02-12T06:08:04.196Z,3.50
2018-02-12T06:10:42.681Z,3.60
2018-02-12T06:13:24.040Z,3.60
2018-02-12T06:16:04.714Z,3.80
2018-02-12T06:18:44.167Z,3.60
2018-02-12T06:21:23.701Z,3.80
2018-02-12T06:24:02.461Z,3.60
2018-02-12T06:26:41.867Z,3.90
2018-02-12T06:29:21.558Z,3.70
2018-02-12T06:32:04.208Z,3.90
2018-02-12T06:34:42.829Z,3.60
2018-02-12T06:37:22.169Z,3.90
2018-02-12T06:40:01.723Z,3.80
2018-02-12T06:42:40.323Z,3.80
2018-02-12T06:45:18.915Z,4.00
2018-02-12T06:48:03.540Z,4.20
2018-02-12T06:50:48.142Z,3.80
2018-02-12T06:53:26.748Z,4.00
2018-02-12T06:56:05.394Z,3.90
2018-02-12T06:58:43.905Z,3.80
2018-02-12T07:01:23.541Z,4.10
2018-02-12T07:04:01.302Z,4.20
2018-02-12T07:06:40.843Z,4.50
2018-02-12T07:09:22.412Z,4.20
2018-02-12T07:12:01.882Z,4.40
2018-02-12T07:14:42.462Z,4.30
2018-02-12T07:17:21.799Z,4.30
2018-02-12T07:20:01.345Z,4.20
2018-02-12T07:22:42.855Z,4.70
2018-02-12T07:25:21.349Z,4.10
2018-02-12T07:28:04.730Z,4.60
2018-02-12T07:30:43.499Z,4.30
2018-02-12T07:33:24.916Z,4.30
2018-02-12T07:36:03.601Z,4.20
2018-02-12T07:38:42.069Z,4.40
2018-02-12T07:41:21.463Z,4.40
2018-02-12T07:43:59.795Z,4.40
2018-02-12T07:46:40.232Z,4.60
2018-02-12T07:49:21.846Z,4.50
2018-02-12T07:52:01.127Z,4.40
2018-02-12T07:54:41.650Z,4.60
2018-02-12T07:57:22.020Z,4.40
2018-02-12T08:00:01.783Z,4.70
2018-02-12T08:02:40.287Z,4.70
2018-02-12T08:05:20.123Z,4.70
2018-02-12T08:07:58.544Z,4.50
2018-02-12T08:10:37.238Z,4.40
2018-02-12T08:13:16.786Z,4.60
2018-02-12T08:15:56.412Z,4.40
2018-02-12T08:18:34.910Z,4.70
2018-02-12T08:21:13.634Z,4.40
2018-02-12T08:23:52.031Z,4.40
2018-02-12T08:26:34.564Z,4.40
2018-02-12T08:29:14.532Z,4.60
2018-02-12T08:31:52.669Z,4.50
2018-02-12T08:34:30.228Z,4.20
2018-02-12T08:37:09.952Z,4.10
2018-02-12T08:39:48.493Z,4.10
2018-02-12T08:42:28.028Z,4.10
2018-02-12T08:45:08.393Z,4.20
2018-02-12T08:47:48.842Z,4.00
2018-02-12T08:50:27.236Z,4.00
2018-02-12T08:53:07.828Z,4.10
2018-02-12T08:55:49.310Z,4.10
2018-02-12T08:58:29.012Z,3.50
2018-02-12T09:01:08.581Z,3.60
2018-02-12T09:03:47.093Z,3.90
2018-02-12T09:06:28.521Z,3.70
2018-02-12T09:09:07.122Z,3.50
2018-02-12T09:11:45.568Z,3.20
2018-02-12T09:14:23.948Z,3.50
2018-02-12T09:17:03.677Z,3.30
2018-02-12T09:19:43.283Z,3.00
2018-02-12T09:22:20.958Z,3.10
2018-02-12T09:25:00.444Z,3.30
2018-02-12T09:27:39.039Z,3.50
2018-02-12T09:30:17.817Z,3.10
2018-02-12T09:32:56.413Z,3.00
2018-02-12T09:35:35.937Z,3.30
2018-02-12T09:38:15.464Z,2.90
2018-02-12T09:40:54.081Z,3.20
2018-02-12T09:43:32.592Z,3.30
2018-02-12T09:46:10.968Z,3.30
2018-02-12T09:48:49.400Z,3.10
2018-02-12T09:51:27.840Z,3.30
2018-02-12T09:54:06.255Z,3.30
2018-02-12T09:56:44.736Z,3.00
2018-02-12T09:59:22.473Z,3.10
2018-02-12T10:02:02.876Z,3.00
2018-02-12T10:04:41.309Z,3.10
2018-02-12T10:07:19.826Z,2.90
2018-02-12T10:09:59.586Z,3.20
2018-02-12T10:12:38.096Z,2.90
2018-02-12T10:15:16.674Z,2.80
2018-02-12T10:17:57.023Z,2.80
2018-02-12T10:20:35.879Z,2.80
2018-02-12T10:23:14.381Z,2.70
2018-02-12T10:25:54.004Z,3.00
2018-02-12T10:28:34.662Z,2.90
2018-02-12T10:31:15.308Z,2.80
2018-02-12T10:33:55.804Z,2.60
2018-02-12T10:36:34.359Z,2.70
2018-02-12T10:39:13.984Z,2.80
2018-02-12T10:41:53.643Z,2.80
2018-02-12T10:44:32.944Z,3.00
2018-02-12T10:47:11.778Z,2.80
2018-02-12T10:49:50.319Z,2.70
2018-02-12T10:52:29.043Z,2.70
2018-02-12T10:55:07.790Z,2.90
2018-02-12T10:57:47.356Z,3.00
2018-02-12T11:00:25.831Z,2.70
2018-02-12T11:03:05.492Z,2.80
2018-02-12T11:05:46.114Z,2.80
2018-02-12T11:08:26.160Z,2.70
2018-02-12T11:11:06.108Z,2.80
2018-02-12T11:13:44.527Z,2.70
2018-02-12T11:16:23.290Z,2.50
2018-02-12T11:19:02.886Z,2.50
2018-02-12T11:21:42.382Z,2.60
2018-02-12T11:24:20.704Z,2.40
2018-02-12T11:26:59.240Z,2.50
2018-02-12T11:29:37.864Z,2.50
2018-02-12T11:32:16.427Z,2.30
2018-02-12T11:34:56.008Z,2.30
2018-02-12T11:37:34.098Z,2.30
2018-02-12T11:40:14.051Z,2.30
2018-02-12T11:42:53.557Z,2.20
2018-02-12T11:45:33.100Z,2.10
2018-02-12T11:48:12.520Z,2.00
2018-02-12T11:50:51.090Z,1.90
2018-02-12T11:53:29.596Z,2.00
2018-02-12T11:56:08.149Z,2.10
2018-02-12T11:58:46.520Z,1.70
2018-02-12T12:01:24.972Z,1.60
2018-02-12T12:04:07.501Z,1.80
2018-02-12T12:06:46.015Z,1.70
2018-02-12T12:09:25.602Z,1.60
2018-02-12T12:12:04.080Z,1.50
2018-02-12T12:14:44.670Z,1.50
2018-02-12T12:17:23.192Z,1.50
2018-02-12T12:20:00.720Z,1.40
2018-02-12T12:22:40.294Z,1.50
2018-02-12T12:25:18.936Z,1.10
2018-02-12T12:27:57.419Z,1.30
2018-02-12T12:30:36.954Z,1.30
2018-02-12T12:33:16.590Z,0.90
2018-02-12T12:35:55.071Z,1.20
2018-02-12T12:38:34.811Z,0.80
2018-02-12T12:41:13.286Z,1.00
2018-02-12T12:43:52.844Z,0.60
2018-02-12T12:46:31.374Z,0.60
2018-02-12T12:49:11.058Z,0.80
2018-02-12T12:51:49.823Z,0.70
2018-02-12T12:54:28.101Z,0.80
2018-02-12T12:57:07.784Z,0.50
2018-02-12T12:59:46.184Z,0.60
2018-02-12T13:02:24.792Z,0.50
2018-02-12T13:05:02.458Z,0.30
2018-02-12T13:07:42.157Z,0.50
2018-02-12T13:10:20.404Z,0.30
2018-02-12T13:13:00.100Z,0.30
2018-02-12T13:15:37.655Z,0.30
2018-02-12T13:18:16.044Z,0.30
2018-02-12T13:20:54.572Z,0.00
2018-02-12T13:23:33.166Z,0.30
2018-02-12T13:26:11.854Z,0.30
2018-02-12T13:28:50.327Z,0.30
2018-02-12T13:31:28.845Z,0.20
2018-02-12T13:34:08.375Z,0.30
2018-02-12T13:36:45.964Z,0.30
2018-02-12T13:39:26.633Z,0.00
2018-02-12T13:42:05.243Z,-0.20
2018-02-12T13:44:44.017Z,-0.10
2018-02-12T13:47:22.396Z,-0.30
2018-02-12T13:50:00.941Z,-0.40
2018-02-12T13:52:39.546Z,-0.20
2018-02-12T13:55:17.966Z,-0.20
2018-02-12T13:57:56.448Z,-0.20
2018-02-12T14:00:35.908Z,-0.20
2018-02-12T14:03:14.423Z,-0.50
2018-02-12T14:05:52.823Z,-0.50
2018-02-12T14:08:33.163Z,-0.30
2018-02-12T14:11:11.608Z,-0.50
2018-02-12T14:13:52.201Z,-0.60
2018-02-12T14:16:30.612Z,-0.50
2018-02-12T14:19:09.018Z,-0.60
2018-02-12T14:21:47.436Z,-0.60
2018-02-12T14:24:25.926Z,-0.70
2018-02-12T14:27:05.480Z,-0.70
2018-02-12T14:29:43.901Z,-0.70
2018-02-12T14:32:22.263Z,-0.70
2018-02-12T14:35:00.842Z,-0.70
2018-02-12T14:37:40.384Z,-0.70
2018-02-12T14:40:18.794Z,-0.60
2018-02-12T14:42:58.568Z,-0.70
2018-02-12T14:45:38.177Z,-0.50
2018-02-12T14:48:16.673Z,-0.90
2018-02-12T14:50:56.157Z,-0.60
2018-02-12T14:53:34.634Z,-0.70
2018-02-12T14:56:14.200Z,-0.90
2018-02-12T14:58:52.584Z,-0.90
2018-02-12T15:01:31.992Z,-0.90
2018-02-12T15:04:11.341Z,-0.90
2018-02-12T15:06:49.941Z,-0.90
2018-02-12T15:09:29.510Z,-0.90
2018-02-12T15:12:07.852Z,-0.90
2018-02-12T15:14:47.448Z,-1.00
2018-02-12T15:17:26.844Z,-1.00
2018-02-12T15:20:09.343Z,-0.70
2018-02-12T15:22:48.872Z,-0.80
2018-02-12T15:25:27.417Z,-0.50
2018-02-12T15:28:06.798Z,-0.90
2018-02-12T15:30:45.457Z,-0.70
2018-02-12T15:33:24.246Z,-0.70
2018-02-12T15:36:02.589Z,-0.50
2018-02-12T15:38:41.273Z,-0.20
2018-02-12T15:41:21.820Z,-0.10
2018-02-12T15:44:01.413Z,-0.30
2018-02-12T15:46:39.973Z,0.10
2018-02-12T15:49:18.466Z,0.40
2018-02-12T15:51:58.314Z,0.50
2018-02-12T15:54:36.699Z,0.50
2018-02-12T15:57:15.099Z,0.40
2018-02-12T15:59:53.525Z,0.30
2018-02-12T16:02:33.083Z,0.50
2018-02-12T16:05:11.837Z,0.70
2018-02-12T16:07:50.437Z,0.70
2018-02-12T16:10:29.828Z,0.50
2018-02-12T16:13:08.336Z,0.70
2018-02-12T16:15:47.839Z,0.80
2018-02-12T16:18:28.331Z,1.00
2018-02-12T16:21:08.011Z,1.10
2018-02-12T16:23:49.456Z,1.40
2018-02-12T16:26:27.926Z,1.30
2018-02-12T16:29:06.372Z,1.40
2018-02-12T16:31:44.884Z,1.60
2018-02-12T16:34:23.363Z,1.90
2018-02-12T16:37:02.913Z,3.50
2018-02-12T16:39:42.459Z,3.60
2018-02-12T16:42:25.073Z,4.50
2018-02-12T16:45:04.661Z,4.10
2018-02-12T16:47:43.101Z,4.60
2018-02-12T16:50:22.590Z,5.30
2018-02-12T16:53:01.221Z,5.60
2018-02-12T16:55:39.799Z,5.90
2018-02-12T16:58:19.202Z,6.30
2018-02-12T17:00:58.612Z,7.10
2018-02-12T17:03:38.190Z,7.30
2018-02-12T17:06:16.678Z,7.80
2018-02-12T17:08:55.036Z,8.60
2018-02-12T17:11:34.533Z,8.70
2018-02-12T17:14:15.927Z,8.50
2018-02-12T17:16:54.338Z,8.20
2018-02-12T17:19:32.844Z,8.50
2018-02-12T17:22:11.331Z,8.60
2018-02-12T17:24:49.050Z,8.40
2018-02-12T17:27:27.727Z,8.50
2018-02-12T17:30:06.258Z,8.20
2018-02-12T17:32:44.558Z,8.50
2018-02-12T17:35:23.198Z,9.00
2018-02-12T17:38:01.658Z,9.40
2018-02-12T17:40:40.042Z,8.80
2018-02-12T17:43:18.769Z,8.90
2018-02-12T17:45:57.209Z,8.40
2018-02-12T17:48:37.019Z,7.60
2018-02-12T17:51:15.507Z,7.80
2018-02-12T17:53:53.846Z,7.30
2018-02-12T17:56:32.302Z,7.60
2018-02-12T17:59:09.877Z,8.00
2018-02-12T18:01:48.444Z,8.60
2018-02-12T18:04:27.053Z,8.80
2018-02-12T18:07:05.619Z,8.40
2018-02-12T18:09:44.198Z,8.50
2018-02-12T18:12:22.862Z,8.50
2018-02-12T18:15:03.244Z,9.20
2018-02-12T18:17:42.774Z,9.20
2018-02-12T18:20:21.330Z,9.60
2018-02-12T18:22:59.885Z,9.50
2018-02-12T18:25:38.229Z,10.00
2018-02-12T18:28:17.802Z,9.90
2018-02-12T18:30:56.144Z,9.60
2018-02-12T18:33:35.507Z,9.70
2018-02-12T18:36:15.025Z,9.40
2018-02-12T18:38:54.469Z,9.70
2018-02-12T18:41:33.866Z,9.90
2018-02-12T18:44:12.458Z,10.10
2018-02-12T18:46:51.874Z,9.80
2018-02-12T18:49:32.481Z,9.80
2018-02-12T18:52:12.008Z,9.80
2018-02-12T18:54:50.638Z,9.70
2018-02-12T18:57:29.120Z,9.50
2018-02-12T19:00:07.379Z,9.50
2018-02-12T19:02:45.913Z,9.70
2018-02-12T19:05:24.673Z,9.70
2018-02-12T19:08:02.855Z,9.60
2018-02-12T19:10:43.204Z,9.10
2018-02-12T19:13:21.824Z,8.60
2018-02-12T19:16:01.209Z,9.00
2018-02-12T19:18:39.631Z,9.20
2018-02-12T19:21:18.162Z,9.20
2018-02-12T19:23:56.817Z,9.50
2018-02-12T19:26:36.368Z,9.40
2018-02-12T19:29:14.887Z,9.30
2018-02-12T19:31:52.364Z,9.40
2018-02-12T19:34:31.025Z,9.60
2018-02-12T19:37:10.517Z,9.80
2018-02-12T19:39:49.060Z,9.70
2018-02-12T19:42:27.341Z,9.60
2018-02-12T19:45:06.979Z,9.90
2018-02-12T19:47:45.452Z,10.00
2018-02-12T19:50:25.036Z,9.70
2018-02-12T19:53:04.791Z,10.20
2018-02-12T19:55:43.341Z,10.20
2018-02-12T19:58:21.849Z,9.90
2018-02-12T20:01:01.424Z,10.50
2018-02-12T20:03:40.061Z,10.60
2018-02-12T20:06:19.406Z,10.40
2018-02-12T20:08:59.095Z,10.10
2018-02-12T20:11:37.558Z,10.10
2018-02-12T20:14:16.102Z,10.00
2018-02-12T20:16:55.475Z,10.00
2018-02-12T20:19:35.063Z,9.50
2018-02-12T20:22:14.336Z,9.20
2018-02-12T20:24:52.661Z,9.10
2018-02-12T20:27:32.068Z,8.90
2018-02-12T20:30:10.664Z,8.50
2018-02-12T20:32:49.193Z,8.30
2018-02-12T20:35:27.519Z,8.00
2018-02-12T20:38:04.946Z,7.80
2018-02-12T20:40:45.358Z,8.10
2018-02-12T20:43:22.698Z,7.70
2018-02-12T20:46:02.192Z,7.80
2018-02-12T20:48:40.611Z,8.10
2018-02-12T20:51:19.157Z,7.90
2018-02-12T20:53:57.539Z,7.90
2018-02-12T20:56:35.998Z,8.20
2018-02-12T20:59:14.618Z,7.90
2018-02-12T21:01:53.267Z,8.00
2018-02-12T21:04:31.787Z,8.00
2018-02-12T21:07:10.891Z,7.90
2018-02-12T21:09:50.446Z,7.70
2018-02-12T21:12:29.922Z,7.90
2018-02-12T21:15:08.140Z,7.90
2018-02-12T21:17:46.840Z,8.20
2018-02-12T21:20:25.313Z,7.80
2018-02-12T21:23:03.666Z,7.60
2018-02-12T21:25:42.293Z,7.60
2018-02-12T21:28:20.605Z,7.80
2018-02-12T21:30:59.130Z,7.60
2018-02-12T21:33:37.261Z,7.70
2018-02-12T21:36:16.682Z,7.80
2018-02-12T21:38:55.060Z,7.60
2018-02-12T21:41:33.348Z,7.60
2018-02-12T21:44:11.954Z,7.70
2018-02-12T21:46:50.278Z,7.60
2018-02-12T21:49:28.698Z,7.60
2018-02-12T21:52:09.074Z,7.60
2018-02-12T21:54:47.712Z,7.60
2018-02-12T21:57:26.180Z,7.70
2018-02-12T22:00:04.775Z,7.60
2018-02-12T22:02:44.097Z,7.90
2018-02-12T22:05:23.529Z,7.80
2018-02-12T22:08:02.864Z,8.00
2018-02-12T22:10:44.204Z,7.80
2018-02-12T22:13:22.749Z,8.00
2018-02-12T22:16:01.187Z,7.90
2018-02-12T22:18:39.611Z,8.00
2018-02-12T22:21:18.147Z,7.90
2018-02-12T22:23:56.540Z,7.90
2018-02-12T22:26:34.860Z,7.90
2018-02-12T22:29:13.318Z,8.00
2018-02-12T22:31:52.735Z,7.90
2018-02-12T22:34:31.151Z,7.90
2018-02-12T22:37:09.562Z,8.10
2018-02-12T22:39:47.933Z,7.90
2018-02-12T22:42:25.452Z,8.00
2018-02-12T22:45:04.084Z,7.90
2018-02-12T22:47:42.634Z,7.90
2018-02-12T22:50:20.920Z,7.90
2018-02-12T22:52:59.446Z,8.00
2018-02-12T22:55:37.713Z,7.90
2018-02-12T22:58:16.042Z,7.90
2018-02-12T23:00:56.488Z,7.90
2018-02-12T23:03:34.804Z,7.90
2018-02-12T23:06:13.420Z,7.90
2018-02-12T23:08:51.778Z,8.10
2018-02-12T23:11:30.111Z,8.10
2018-02-12T23:14:08.579Z,7.90
2018-02-12T23:16:53.013Z,8.00
2018-02-12T23:19:31.482Z,7.90
2018-02-12T23:22:11.016Z,7.90
2018-02-12T23:24:50.458Z,8.10
2018-02-12T23:27:29.873Z,7.90
2018-02-12T23:30:08.489Z,8.00
2018-02-12T23:32:47.428Z,7.90
2018-02-12T23:35:25.522Z,8.00
2018-02-12T23:38:04.126Z,8.20
2018-02-12T23:40:42.374Z,8.10
2018-02-12T23:43:21.905Z,8.40
2018-02-12T23:46:01.490Z,7.90
2018-02-12T23:48:39.981Z,8.00
2018-02-12T23:51:18.491Z,7.90
2018-02-12T23:53:56.913Z,7.90
2018-02-12T23:56:35.454Z,8.00
2018-02-12T23:59:14.110Z,7.90
